Currie, Minnesota
Current Conditions -  °F | °C
As of 2:14 PM on Saturday 25 Oct 2014 (Local Time) from KDVP Reporting Station
Clear Clear  
Wind Chill: 63°   Ceiling: Unl
Heat Index: 63°   Visibility: 10mi
Dew Point: 28°   Wind: 8mph
Humidity: 27%   Direction: 340°NNW
Pressure: 30.13"   Gusts: NA
Location:  44.07°N, 95.67°W
Report Text: KDVP 251914Z AUTO 34007KT 10SM CLR 17/M02 A3013 RMK AO2 T01701023
Loading
Personal Weather Stations






























Interactive Weather Map
Tropical Storm Tracking
New forecast layout! Learn more

10-Day Weather Forecast

Advertisements
Track Severe Weather on mobile